Time;durP1;ratioP1;P1;durP2;ratioP2;P2;SDS_P1;SDS_P2;PMS_P1;PMS_P2;Temp;Humidity;BMP_temperature;BMP_pressure;BME280_temperature;BME280_humidity;BME280_pressure;Samples;Min_cycle;Max_cycle;Signal;HPM_P1;HPM_P2
2022/06/22 00:02:30;;;;;;;7.53;6.83;;;20.70;99.90;;;;;;4994670;28;20434;-75
2022/06/22 00:05:01;;;;;;;8.97;8.10;;;20.60;99.90;;;;;;4994117;28;20919;-75
2022/06/22 00:07:33;;;;;;;7.10;6.50;;;20.60;99.90;;;;;;4993843;28;20473;-75
2022/06/22 00:10:21;;;;;;;7.73;7.03;;;20.60;99.90;;;;;;4994433;28;20466;-75
2022/06/22 00:12:53;;;;;;;9.57;7.13;;;20.60;99.90;;;;;;4994002;28;20469;-75
2022/06/22 00:15:30;;;;;;;8.50;7.47;;;20.60;99.90;;;;;;4994252;28;20419;-75
2022/06/22 00:17:55;;;;;;;8.47;7.10;;;20.60;99.90;;;;;;4994426;28;20414;-76
2022/06/22 00:20:27;;;;;;;8.00;7.30;;;20.50;99.90;;;;;;4994131;28;20415;-75
2022/06/22 00:23:18;;;;;;;7.90;7.13;;;20.50;99.90;;;;;;4993993;28;20191;-75
2022/06/22 00:25:43;;;;;;;8.33;7.63;;;20.50;99.90;;;;;;4994218;28;20425;-75
2022/06/22 00:28:32;;;;;;;7.73;6.57;;;20.40;99.90;;;;;;4994070;28;20423;-75
2022/06/22 00:31:12;;;;;;;8.40;7.70;;;20.40;99.90;;;;;;4993818;28;20256;-75
2022/06/22 00:33:37;;;;;;;8.63;7.83;;;20.40;99.90;;;;;;4993901;28;20469;-75
2022/06/22 00:36:20;;;;;;;8.13;7.20;;;20.40;99.90;;;;;;4994430;28;20414;-75
2022/06/22 00:38:46;;;;;;;8.30;7.60;;;20.30;99.90;;;;;;4993796;28;20422;-75
2022/06/22 00:41:22;;;;;;;9.07;8.10;;;20.30;99.90;;;;;;4993685;28;20435;-75
2022/06/22 00:43:49;;;;;;;10.30;7.33;;;20.30;99.90;;;;;;4993951;28;20923;-75
2022/06/22 00:46:21;;;;;;;10.53;8.10;;;20.20;99.90;;;;;;4993919;28;20454;-75
2022/06/22 00:48:54;;;;;;;8.37;7.57;;;20.20;99.90;;;;;;4993837;28;21002;-75
2022/06/22 00:51:34;;;;;;;7.80;7.10;;;20.20;99.90;;;;;;4993380;28;20999;-75
2022/06/22 00:54:05;;;;;;;10.60;8.07;;;20.10;99.90;;;;;;4993595;28;20560;-75
2022/06/22 00:56:43;;;;;;;11.50;8.80;;;20.10;99.90;;;;;;4993781;28;20417;-76
2022/06/22 00:59:26;;;;;;;10.20;7.93;;;20.00;99.90;;;;;;4993788;28;20414;-76
2022/06/22 02:32:35;;;;;;;9.20;8.30;;;20.00;99.90;;;;;;5245852;23;20993;-77
2022/06/22 02:35:04;;;;;;;8.40;7.63;;;20.00;99.90;;;;;;4996768;28;20509;-76
2022/06/22 02:37:41;;;;;;;8.27;7.57;;;20.00;99.90;;;;;;4996786;28;20992;-77
2022/06/22 02:40:16;;;;;;;11.07;10.07;;;20.00;99.90;;;;;;4997187;28;20414;-76
2022/06/22 02:45:26;;;;;;;14.10;10.03;;;20.10;99.90;;;;;;4997010;28;20401;-76
2022/06/22 02:48:29;;;;;;;10.67;8.40;;;20.20;99.90;;;;;;4996407;28;20410;-76
2022/06/22 02:51:08;;;;;;;11.17;9.90;;;20.20;99.90;;;;;;4996050;28;20191;-77
2022/06/22 02:53:37;;;;;;;17.77;10.50;;;20.20;99.90;;;;;;4996152;28;20459;-76
2022/06/22 02:56:05;;;;;;;10.07;9.13;;;20.30;99.90;;;;;;4996054;28;20414;-76
2022/06/22 02:58:37;;;;;;;13.47;9.30;;;20.30;99.90;;;;;;4996066;28;20417;-76
2022/06/22 03:01:12;;;;;;;11.27;10.10;;;20.20;99.90;;;;;;4994683;28;20448;-76
2022/06/22 03:03:45;;;;;;;14.60;9.87;;;20.20;99.90;;;;;;4995597;28;20922;-76
2022/06/22 03:06:13;;;;;;;11.17;9.00;;;20.10;99.90;;;;;;4995637;28;20414;-75
2022/06/22 03:08:39;;;;;;;10.90;9.90;;;20.10;99.90;;;;;;4995812;28;20418;-75
2022/06/22 03:11:07;;;;;;;14.00;10.77;;;20.00;99.90;;;;;;4995473;28;20795;-75
2022/06/22 03:13:38;;;;;;;10.50;9.50;;;20.00;99.90;;;;;;4995562;28;20454;-76
2022/06/22 03:16:07;;;;;;;12.40;11.17;;;20.00;99.90;;;;;;4995518;28;20872;-76
2022/06/22 03:18:38;;;;;;;10.40;9.43;;;20.00;99.90;;;;;;4995901;28;20417;-75
2022/06/22 03:21:07;;;;;;;11.07;10.17;;;20.00;99.90;;;;;;4993983;28;20529;-76
2022/06/22 03:23:39;;;;;;;13.17;10.57;;;20.00;99.90;;;;;;4995405;28;20442;-76
2022/06/22 03:26:12;;;;;;;12.47;10.83;;;19.90;99.90;;;;;;4995389;28;20418;-76
2022/06/22 03:28:44;;;;;;;11.83;9.43;;;20.00;99.90;;;;;;4995258;28;20472;-75
2022/06/22 03:31:21;;;;;;;12.13;9.93;;;20.00;99.90;;;;;;4995171;28;20453;-76
2022/06/22 03:33:49;;;;;;;10.70;9.83;;;19.90;99.90;;;;;;4995303;28;20524;-76
2022/06/22 03:36:22;;;;;;;10.43;9.33;;;19.90;99.90;;;;;;4995180;28;20413;-75
2022/06/22 03:38:53;;;;;;;14.07;10.17;;;19.80;99.90;;;;;;4995455;28;20418;-76
2022/06/22 03:41:25;;;;;;;11.30;10.13;;;19.80;99.90;;;;;;4994939;28;20438;-75
2022/06/22 03:44:06;;;;;;;11.43;10.43;;;19.70;99.90;;;;;;4995333;28;20748;-76
2022/06/22 03:46:54;;;;;;;11.57;9.83;;;19.70;99.90;;;;;;4995149;28;20502;-76
2022/06/22 03:49:40;;;;;;;12.83;9.90;;;19.70;99.90;;;;;;4994952;28;20418;-76
2022/06/22 03:52:29;;;;;;;10.17;9.17;;;19.70;99.90;;;;;;4994745;28;20434;-76
2022/06/22 03:55:12;;;;;;;13.33;11.07;;;19.70;99.90;;;;;;4995058;28;20466;-76
2022/06/22 03:57:40;;;;;;;10.23;9.23;;;19.70;99.90;;;;;;4994878;28;20453;-75
2022/06/22 04:00:09;;;;;;;14.07;10.77;;;19.70;99.90;;;;;;4995200;28;20410;-76
2022/06/22 04:02:34;;;;;;;10.50;9.63;;;19.70;99.90;;;;;;4993072;28;20446;-76
2022/06/22 04:05:01;;;;;;;10.63;9.80;;;19.70;99.90;;;;;;4994851;28;20533;-75
2022/06/22 04:07:33;;;;;;;12.40;9.53;;;19.70;99.90;;;;;;4994326;28;20501;-75
2022/06/22 04:09:59;;;;;;;10.73;9.73;;;19.70;99.90;;;;;;4994742;28;20417;-76
2022/06/22 04:12:31;;;;;;;11.53;9.57;;;19.80;99.90;;;;;;4994029;28;20838;-75
2022/06/22 04:15:07;;;;;;;11.17;9.57;;;19.80;99.90;;;;;;4994522;28;20199;-76
2022/06/22 04:17:40;;;;;;;10.30;9.17;;;19.80;99.90;;;;;;4994290;28;20414;-76
2022/06/22 04:20:21;;;;;;;10.43;9.43;;;19.80;99.90;;;;;;4994370;28;20492;-75
2022/06/22 04:22:52;;;;;;;11.70;8.90;;;19.80;99.90;;;;;;4994079;28;20933;-76
2022/06/22 04:25:31;;;;;;;12.23;8.63;;;19.80;99.90;;;;;;4994323;28;20414;-76
2022/06/22 04:28:00;;;;;;;9.00;8.10;;;19.90;99.90;;;;;;4994203;28;20469;-75
2022/06/22 04:30:32;;;;;;;10.00;8.97;;;19.90;99.90;;;;;;4994240;28;20791;-75
2022/06/22 04:33:33;;;;;;;10.67;9.67;;;19.90;99.90;;;;;;4993959;28;20519;-76
2022/06/22 04:36:06;;;;;;;10.83;8.83;;;20.00;99.90;;;;;;4993081;28;20434;-76
2022/06/22 04:38:41;;;;;;;10.03;9.20;;;20.00;99.90;;;;;;4994178;28;20434;-76
2022/06/22 04:41:27;;;;;;;11.47;9.53;;;20.10;99.90;;;;;;4994164;28;20491;-76
2022/06/22 04:43:56;;;;;;;10.07;9.10;;;20.10;99.90;;;;;;4993992;28;20903;-75
2022/06/22 04:46:32;;;;;;;9.60;8.80;;;20.20;99.90;;;;;;4994076;28;20423;-76
2022/06/22 04:49:05;;;;;;;9.97;8.97;;;20.30;99.90;;;;;;4993756;28;20430;-76
2022/06/22 04:51:35;;;;;;;9.53;8.37;;;20.30;99.90;;;;;;4993067;28;20442;-77
2022/06/22 04:54:04;;;;;;;9.60;8.80;;;20.40;99.90;;;;;;4993733;28;20480;-76
2022/06/22 04:56:33;;;;;;;9.47;8.67;;;20.40;99.90;;;;;;4993904;28;20418;-76
2022/06/22 04:59:00;;;;;;;9.40;8.60;;;20.40;99.90;;;;;;4993819;28;20854;-76
2022/06/22 05:01:34;;;;;;;9.53;8.60;;;20.40;99.90;;;;;;4993427;28;20434;-76
2022/06/22 05:04:05;;;;;;;9.07;8.10;;;20.50;99.90;;;;;;4993573;28;20426;-76
2022/06/22 05:06:55;;;;;;;8.50;7.70;;;20.50;99.90;;;;;;4993423;28;20433;-76
2022/06/22 05:09:30;;;;;;;8.77;7.90;;;20.60;99.90;;;;;;4993177;28;20458;-76
2022/06/22 05:11:55;;;;;;;8.27;7.57;;;20.60;99.90;;;;;;4993614;28;20445;-76
2022/06/22 05:14:26;;;;;;;9.23;8.40;;;20.70;99.90;;;;;;4993128;28;20462;-76
2022/06/22 05:16:57;;;;;;;9.50;8.33;;;20.80;99.90;;;;;;4993421;28;20605;-76
2022/06/22 05:19:29;;;;;;;8.80;8.00;;;20.90;99.90;;;;;;4993073;28;20821;-76
2022/06/22 05:21:58;;;;;;;8.33;7.53;;;21.00;99.90;;;;;;4993148;28;20521;-76
2022/06/22 05:24:31;;;;;;;10.03;8.67;;;21.10;99.90;;;;;;4992894;28;20509;-76
2022/06/22 05:26:59;;;;;;;9.33;8.43;;;21.30;99.90;;;;;;4993130;28;20415;-76
2022/06/22 05:29:36;;;;;;;8.63;7.83;;;21.60;99.90;;;;;;4992896;28;20937;-76
2022/06/22 05:32:09;;;;;;;10.37;6.60;;;21.80;99.90;;;;;;4992879;28;20470;-76
2022/06/22 05:34:37;;;;;;;11.30;7.00;;;22.10;99.90;;;;;;4991617;28;20842;-76
2022/06/22 05:37:12;;;;;;;8.87;8.17;;;22.20;99.90;;;;;;4993206;28;20506;-77
2022/06/22 05:39:40;;;;;;;9.37;7.97;;;22.40;99.90;;;;;;4993003;28;20489;-76
2022/06/22 05:42:07;;;;;;;15.53;7.77;;;22.60;99.90;;;;;;4992737;28;20485;-76
2022/06/22 05:44:33;;;;;;;8.57;7.23;;;22.80;99.90;;;;;;4992880;28;20426;-76
2022/06/22 05:47:00;;;;;;;9.47;7.80;;;22.90;99.90;;;;;;4993062;28;20450;-76
2022/06/22 05:49:35;;;;;;;14.27;7.53;;;22.90;99.90;;;;;;4992572;28;20433;-76
2022/06/22 05:52:11;;;;;;;8.73;8.00;;;22.90;99.90;;;;;;4992381;28;20525;-76
2022/06/22 05:54:50;;;;;;;12.77;7.57;;;22.70;99.90;;;;;;4992518;28;20989;-77
2022/06/22 05:57:22;;;;;;;7.13;6.60;;;22.60;99.90;;;;;;4992371;28;20421;-76
2022/06/22 06:00:01;;;;;;;7.23;6.63;;;22.60;99.90;;;;;;4992607;28;20505;-76
2022/06/22 06:02:44;;;;;;;8.77;7.97;;;22.60;99.90;;;;;;4992095;28;20577;-76
2022/06/22 06:05:23;;;;;;;9.50;8.03;;;22.40;99.90;;;;;;4991869;28;20848;-76
2022/06/22 06:07:53;;;;;;;10.57;7.77;;;22.40;99.90;;;;;;4992398;28;20464;-76
2022/06/22 06:10:31;;;;;;;10.90;7.77;;;22.50;99.90;;;;;;4992218;28;20750;-77
2022/06/22 06:13:10;;;;;;;8.17;7.57;;;22.50;99.90;;;;;;4991967;28;20430;-76
2022/06/22 06:15:39;;;;;;;10.00;7.20;;;22.70;99.90;;;;;;4992352;28;20489;-76
2022/06/22 06:18:07;;;;;;;11.70;7.23;;;22.60;99.90;;;;;;4992295;28;20410;-76
2022/06/22 06:20:40;;;;;;;9.10;8.07;;;22.60;99.90;;;;;;4991975;28;20422;-75
2022/06/22 06:23:16;;;;;;;11.10;7.70;;;22.60;99.90;;;;;;4992197;28;20422;-76
2022/06/22 06:28:57;;;;;;;14.63;7.93;;;22.70;99.90;;;;;;4992312;28;20441;-77
2022/06/22 06:32:03;;;;;;;15.63;7.87;;;22.80;99.90;;;;;;4991652;28;20508;-76
2022/06/22 06:34:42;;;;;;;7.93;7.00;;;22.90;99.90;;;;;;4992045;28;20555;-76
2022/06/22 06:37:30;;;;;;;8.83;7.43;;;22.90;99.90;;;;;;4992495;28;20411;-77
2022/06/22 06:39:57;;;;;;;7.10;6.40;;;22.90;99.90;;;;;;4992471;28;20426;-76
2022/06/22 06:42:32;;;;;;;10.83;7.20;;;22.80;99.90;;;;;;4991692;28;20441;-76
2022/06/22 06:44:59;;;;;;;12.33;7.80;;;22.90;99.90;;;;;;4992568;28;20891;-76
2022/06/22 06:47:33;;;;;;;6.27;5.77;;;22.80;99.90;;;;;;4992073;28;20415;-76
2022/06/22 06:50:12;;;;;;;7.97;7.20;;;22.90;99.90;;;;;;4991181;28;20426;-76
2022/06/22 06:52:46;;;;;;;8.70;6.87;;;22.80;99.90;;;;;;4991849;28;20536;-76
2022/06/22 06:55:33;;;;;;;10.90;7.87;;;22.70;99.90;;;;;;4991019;28;20422;-76
2022/06/22 06:58:19;;;;;;;8.87;7.60;;;22.70;99.90;;;;;;4991971;28;20398;-76
2022/06/22 07:00:47;;;;;;;10.23;7.63;;;22.70;99.90;;;;;;4991661;28;20399;-76
2022/06/22 07:03:28;;;;;;;10.47;6.73;;;22.60;99.90;;;;;;4991671;28;20761;-76
2022/06/22 07:05:54;;;;;;;8.63;7.77;;;22.50;99.90;;;;;;4991936;28;20406;-76
2022/06/22 07:08:27;;;;;;;13.63;8.53;;;22.40;99.90;;;;;;4991905;28;20745;-76
2022/06/22 07:11:02;;;;;;;11.00;8.03;;;22.30;99.90;;;;;;4992004;28;20176;-76
2022/06/22 07:13:36;;;;;;;10.33;9.10;;;22.10;99.90;;;;;;4991711;28;20462;-76
2022/06/22 07:16:14;;;;;;;16.20;9.33;;;22.10;99.90;;;;;;4994758;28;20504;-77
2022/06/22 07:19:00;;;;;;;14.13;9.00;;;22.00;99.90;;;;;;4994041;28;20505;-76
2022/06/22 07:21:25;;;;;;;10.73;9.03;;;21.90;99.90;;;;;;4993547;28;20442;-76
2022/06/22 07:24:14;;;;;;;11.97;10.60;;;21.90;99.90;;;;;;4995618;28;20966;-76
2022/06/22 07:27:09;;;;;;;18.10;9.40;;;21.80;99.90;;;;;;4995162;28;20194;-76
2022/06/22 07:29:41;;;;;;;14.67;10.23;;;21.70;99.90;;;;;;4995013;28;20414;-76
2022/06/22 07:32:29;;;;;;;14.97;9.70;;;21.70;99.90;;;;;;4994712;28;20462;-76
2022/06/22 07:35:05;;;;;;;13.60;9.17;;;21.60;99.90;;;;;;4994939;28;20466;-76
2022/06/22 07:37:35;;;;;;;16.80;10.13;;;21.50;99.90;;;;;;4994941;28;20413;-77
2022/06/22 07:40:12;;;;;;;17.33;10.50;;;21.50;99.90;;;;;;4994950;28;20399;-76
2022/06/22 07:42:38;;;;;;;13.90;9.10;;;21.50;99.90;;;;;;4993378;28;20450;-77
2022/06/22 07:45:04;;;;;;;12.77;9.50;;;21.30;99.90;;;;;;4995433;28;20410;-77
2022/06/22 07:47:46;;;;;;;14.23;9.50;;;21.30;99.90;;;;;;4994614;28;20473;-76
2022/06/22 07:50:52;;;;;;;11.37;10.27;;;21.30;99.90;;;;;;4994510;28;20672;-77
2022/06/22 07:53:33;;;;;;;12.33;10.10;;;21.30;99.90;;;;;;4994110;28;20477;-76
2022/06/22 07:56:17;;;;;;;14.47;10.23;;;21.30;99.90;;;;;;4994678;28;20997;-77
2022/06/22 07:58:55;;;;;;;18.00;10.23;;;21.30;99.90;;;;;;4995035;28;20402;-76
2022/06/22 08:01:31;;;;;;;12.23;11.13;;;21.30;99.90;;;;;;4994721;28;20418;-76
2022/06/22 08:04:06;;;;;;;17.20;10.80;;;21.30;99.90;;;;;;4995141;28;20970;-76
2022/06/22 08:06:39;;;;;;;13.37;10.23;;;21.30;99.90;;;;;;4994270;28;20813;-76
2022/06/22 08:09:12;;;;;;;11.93;10.73;;;21.40;99.90;;;;;;4994510;28;20418;-76
2022/06/22 08:11:41;;;;;;;11.60;9.87;;;21.50;99.90;;;;;;4994237;28;20430;-76
2022/06/22 08:14:15;;;;;;;11.33;10.23;;;21.60;99.90;;;;;;4994132;28;20466;-77
2022/06/22 08:16:48;;;;;;;13.63;12.20;;;21.70;99.90;;;;;;4994102;28;20418;-76
2022/06/22 08:19:15;;;;;;;11.00;10.00;;;21.80;99.90;;;;;;4994322;28;20780;-75
2022/06/22 08:21:47;;;;;;;12.20;10.60;;;21.90;99.90;;;;;;4994165;28;20533;-75
2022/06/22 08:24:16;;;;;;;16.77;10.67;;;21.90;99.90;;;;;;4994378;28;20835;-76
2022/06/22 08:26:42;;;;;;;11.17;10.13;;;21.90;99.90;;;;;;4993119;28;20426;-76
2022/06/22 08:29:09;;;;;;;13.30;9.10;;;21.90;99.90;;;;;;4994302;28;20506;-77
2022/06/22 08:31:46;;;;;;;10.40;9.60;;;22.00;99.90;;;;;;4993698;28;20458;-76
2022/06/22 08:34:15;;;;;;;11.80;10.60;;;22.00;99.90;;;;;;4994071;28;20466;-76
2022/06/22 08:36:46;;;;;;;13.63;10.40;;;22.10;99.90;;;;;;4994314;28;20411;-76
2022/06/22 08:39:17;;;;;;;11.87;10.00;;;22.10;99.90;;;;;;4993993;28;20414;-76
2022/06/22 08:41:57;;;;;;;13.50;10.07;;;22.00;99.90;;;;;;4993887;28;20483;-76
2022/06/22 08:44:36;;;;;;;13.33;10.17;;;21.90;99.90;;;;;;4992660;28;20459;-76
2022/06/22 08:47:21;;;;;;;12.10;10.17;;;21.80;99.90;;;;;;4993980;28;20430;-76
2022/06/22 08:50:10;;;;;;;14.10;9.30;;;21.70;99.90;;;;;;4993837;28;20958;-76
2022/06/22 08:53:13;;;;;;;11.30;9.80;;;21.70;99.90;;;;;;4993321;28;20445;-76
2022/06/22 08:55:38;;;;;;;12.40;10.60;;;21.70;99.90;;;;;;4993670;28;20501;-77
2022/06/22 08:58:50;;;;;;;12.60;8.80;;;21.80;99.90;;;;;;4993693;28;20504;-76
2022/06/22 09:01:44;;;;;;;15.37;9.20;;;21.80;99.90;;;;;;4993444;28;20203;-77
2022/06/22 09:04:30;;;;;;;11.90;10.10;;;21.90;99.90;;;;;;4993539;28;20430;-76
2022/06/22 09:07:15;;;;;;;10.83;9.60;;;21.90;99.90;;;;;;4993704;28;20441;-76
2022/06/22 09:10:04;;;;;;;10.97;9.73;;;22.00;99.90;;;;;;4993378;28;20937;-76
2022/06/22 09:12:42;;;;;;;10.43;9.30;;;22.10;99.90;;;;;;4993277;28;20425;-77
2022/06/22 09:15:25;;;;;;;11.00;9.90;;;22.20;99.90;;;;;;4993375;28;20508;-76
2022/06/22 09:18:31;;;;;;;11.30;10.13;;;22.20;99.90;;;;;;4993397;28;20426;-76
2022/06/22 09:21:33;;;;;;;11.50;10.23;;;22.30;99.90;;;;;;4993188;28;20438;-77
2022/06/22 09:24:06;;;;;;;16.30;9.57;;;22.30;99.90;;;;;;4993226;28;20907;-77
2022/06/22 09:26:47;;;;;;;13.03;8.60;;;22.50;99.90;;;;;;4993008;28;20480;-77
2022/06/22 09:29:37;;;;;;;14.40;9.57;;;22.50;99.90;;;;;;4993260;28;20413;-77
2022/06/22 09:32:32;;;;;;;11.30;9.43;;;22.60;99.90;;;;;;4992771;28;20450;-76
2022/06/22 09:35:44;;;;;;;10.93;9.80;;;22.70;99.90;;;;;;4993120;28;20462;-76
2022/06/22 09:38:28;;;;;;;26.67;9.53;;;22.80;99.90;;;;;;4992758;28;20465;-76
2022/06/22 09:41:30;;;;;;;9.93;9.03;;;22.80;99.90;;;;;;4992597;28;20762;-77
2022/06/22 09:44:09;;;;;;;10.30;8.93;;;22.80;99.90;;;;;;4993091;28;20505;-77
2022/06/22 09:47:12;;;;;;;12.83;9.53;;;22.80;99.90;;;;;;4992897;28;20402;-77
2022/06/22 09:49:59;;;;;;;10.17;9.17;;;23.00;99.90;;;;;;4992792;28;20512;-77
2022/06/22 09:53:14;;;;;;;13.13;9.73;;;22.90;99.90;;;;;;4992569;28;20437;-76
2022/06/22 09:56:23;;;;;;;18.67;9.57;;;23.00;99.90;;;;;;4992302;28;20800;-76
2022/06/22 09:58:51;;;;;;;11.60;10.40;;;23.10;99.90;;;;;;4992928;28;20409;-76
2022/06/22 10:01:47;;;;;;;17.83;11.00;;;23.10;99.90;;;;;;4992584;28;20434;-76
2022/06/22 10:04:37;;;;;;;13.10;10.20;;;23.00;99.90;;;;;;4992848;28;20791;-76
2022/06/22 10:07:08;;;;;;;12.03;10.27;;;23.10;99.90;;;;;;4993217;28;20844;-76
2022/06/22 10:09:55;;;;;;;15.47;10.80;;;23.20;99.90;;;;;;4992608;28;20421;-76
2022/06/22 10:12:48;;;;;;;13.13;10.40;;;23.20;99.90;;;;;;4992715;28;20942;-76
2022/06/22 10:15:34;;;;;;;14.27;9.43;;;23.20;99.90;;;;;;4992369;28;20410;-77
2022/06/22 10:18:27;;;;;;;11.20;8.70;;;23.10;99.90;;;;;;4992579;28;20418;-77
2022/06/22 10:21:04;;;;;;;16.13;9.90;;;23.10;99.90;;;;;;4992247;28;20409;-77
2022/06/22 10:23:49;;;;;;;14.03;11.00;;;23.00;99.90;;;;;;4991984;28;20481;-77
2022/06/22 10:26:31;;;;;;;10.93;9.90;;;22.80;99.90;;;;;;4992291;28;20775;-76
2022/06/22 10:29:15;;;;;;;16.13;10.77;;;22.80;99.90;;;;;;4992031;28;20433;-76
2022/06/22 10:31:51;;;;;;;14.63;10.17;;;22.80;99.90;;;;;;4991738;28;20465;-77
2022/06/22 10:34:22;;;;;;;18.77;11.70;;;22.70;99.90;;;;;;4991799;28;20457;-76
2022/06/22 10:37:22;;;;;;;12.30;11.03;;;22.60;99.90;;;;;;4991992;28;20782;-76
2022/06/22 10:39:50;;;;;;;13.27;11.90;;;22.50;99.90;;;;;;4992366;28;20417;-77
2022/06/22 10:45:48;;;;;;;14.10;12.80;;;22.40;99.90;;;;;;4991992;28;20464;-77
2022/06/22 10:48:38;;;;;;;12.97;11.13;;;22.50;99.90;;;;;;4991948;28;20407;-76
2022/06/22 10:51:04;;;;;;;17.23;12.70;;;22.60;99.90;;;;;;4994560;28;20474;-77
2022/06/22 10:53:38;;;;;;;15.20;12.43;;;22.60;99.90;;;;;;4995606;28;20462;-75
2022/06/22 10:56:22;;;;;;;11.80;10.60;;;22.70;99.90;;;;;;4996082;28;20170;-76
2022/06/22 10:59:42;;;;;;;11.07;10.17;;;22.70;99.90;;;;;;4995619;28;20489;-77
2022/06/22 11:02:56;;;;;;;18.87;12.10;;;22.70;99.90;;;;;;4954597;28;20438;-76
2022/06/22 11:05:56;;;;;;;12.60;11.30;;;22.70;99.90;;;;;;4986451;28;20796;-76
2022/06/22 11:08:39;;;;;;;14.10;11.73;;;22.70;99.90;;;;;;4995571;28;20437;-76
2022/06/22 11:11:40;;;;;;;15.40;11.90;;;22.70;99.90;;;;;;4995462;28;20422;-76
2022/06/22 11:14:43;;;;;;;9.37;8.43;;;22.70;99.90;;;;;;4994249;28;20461;-76
2022/06/22 11:17:45;;;;;;;10.03;9.03;;;22.60;99.90;;;;;;4995539;28;20461;-77
2022/06/22 11:20:32;;;;;;;10.53;9.43;;;22.40;99.90;;;;;;4995431;28;20414;-77
2022/06/22 11:23:07;;;;;;;9.27;8.33;;;22.20;99.90;;;;;;4995234;28;20853;-76
2022/06/22 11:31:49;;;;;;;8.30;6.80;;;22.00;99.90;;;;;;4994903;28;20460;-76
2022/06/22 11:34:33;;;;;;;6.50;5.90;;;22.10;99.90;;;;;;4995032;28;20466;-76
2022/06/22 11:37:25;;;;;;;9.60;7.40;;;22.00;99.90;;;;;;4995149;28;20553;-76
2022/06/22 11:39:57;;;;;;;10.03;6.50;;;22.10;99.90;;;;;;4995086;28;20406;-77
2022/06/22 11:42:50;;;;;;;8.60;7.80;;;22.20;99.90;;;;;;4995105;28;20462;-76
2022/06/22 11:45:51;;;;;;;11.27;7.50;;;22.30;99.90;;;;;;4994327;28;20498;-77
2022/06/22 11:49:00;;;;;;;6.57;6.07;;;22.40;99.90;;;;;;4995302;28;20831;-76
2022/06/22 11:51:29;;;;;;;8.00;6.63;;;22.50;99.90;;;;;;4976077;28;20430;-76
2022/06/22 11:54:00;;;;;;;7.50;6.90;;;22.40;99.90;;;;;;4994886;28;20556;-76
2022/06/22 11:56:41;;;;;;;9.53;6.90;;;22.40;99.90;;;;;;4993319;28;20411;-76
2022/06/22 11:59:42;;;;;;;7.27;6.30;;;22.30;99.90;;;;;;4994953;28;20438;-76
2022/06/22 12:02:11;;;;;;;7.47;6.70;;;22.30;99.90;;;;;;4994657;28;20425;-76
2022/06/22 12:04:52;;;;;;;10.73;7.27;;;22.30;99.90;;;;;;4994751;28;20421;-77
2022/06/22 12:07:55;;;;;;;8.03;6.33;;;22.40;99.90;;;;;;4994654;28;20414;-77
2022/06/22 12:11:00;;;;;;;8.93;6.87;;;22.50;99.90;;;;;;4993522;28;20818;-77
2022/06/22 12:15:04;;;;;;;9.63;7.30;;;22.50;99.90;;;;;;4994674;28;20477;-77
2022/06/22 12:16:56;;;;;;;8.63;7.43;;;22.60;99.90;;;;;;4994493;28;20765;-77
2022/06/22 12:19:54;;;;;;;8.00;7.20;;;22.80;99.90;;;;;;4992689;28;20419;-77
2022/06/22 12:22:31;;;;;;;11.47;8.53;;;23.10;99.90;;;;;;4994101;28;20430;-77
2022/06/22 12:25:02;;;;;;;9.13;7.17;;;23.20;99.90;;;;;;4994466;28;20410;-77
2022/06/22 12:27:41;;;;;;;7.90;7.20;;;23.20;99.90;;;;;;4994239;28;20410;-77
2022/06/22 12:30:31;;;;;;;14.40;7.50;;;23.30;99.90;;;;;;4992989;28;20778;-77
2022/06/22 12:33:09;;;;;;;9.27;8.17;;;23.30;99.90;;;;;;4993905;28;20467;-77
2022/06/22 12:35:50;;;;;;;9.57;8.17;;;23.20;99.90;;;;;;4994180;28;20410;-77
2022/06/22 12:38:31;;;;;;;11.67;7.10;;;23.10;99.90;;;;;;4994022;28;20556;-77
2022/06/22 12:41:16;;;;;;;14.00;8.20;;;23.10;99.90;;;;;;4994489;28;20431;-79
2022/06/22 12:44:08;;;;;;;9.13;7.97;;;23.10;99.90;;;;;;4994883;28;20411;-77
2022/06/22 12:46:51;;;;;;;12.40;8.17;;;23.00;99.90;;;;;;4994235;28;20765;-77
2022/06/22 12:49:17;;;;;;;10.90;7.20;;;23.00;99.90;;;;;;4993877;28;20410;-77
2022/06/22 12:51:51;;;;;;;23.50;19.67;;;23.10;99.90;;;;;;4993805;28;20465;-77
2022/06/22 12:54:22;;;;;;;14.43;9.97;;;23.20;99.90;;;;;;4992468;28;20253;-77
2022/06/22 12:57:01;;;;;;;12.43;8.30;;;23.30;99.90;;;;;;4992688;28;20996;-77
2022/06/22 12:59:38;;;;;;;11.10;8.90;;;23.40;99.90;;;;;;4993529;28;20427;-77
2022/06/22 13:02:09;;;;;;;14.20;9.17;;;23.30;99.90;;;;;;4993709;28;20879;-77
2022/06/22 13:04:37;;;;;;;16.33;8.47;;;23.30;99.90;;;;;;4994360;28;20477;-77
2022/06/22 13:07:11;;;;;;;10.07;9.03;;;23.30;99.90;;;;;;4995045;28;20761;-77
2022/06/22 13:09:37;;;;;;;11.67;9.27;;;23.30;99.90;;;;;;4994718;28;20429;-77
2022/06/22 13:12:32;;;;;;;16.10;8.60;;;23.40;99.90;;;;;;4994688;28;20443;-78
2022/06/22 13:15:06;;;;;;;13.70;8.43;;;23.50;99.90;;;;;;4994644;28;20509;-77
2022/06/22 13:17:49;;;;;;;10.77;8.77;;;23.50;99.90;;;;;;4994589;28;20419;-75
2022/06/22 13:20:37;;;;;;;17.37;8.83;;;23.50;99.90;;;;;;4992996;28;20430;-75
2022/06/22 13:23:18;;;;;;;9.77;8.30;;;23.30;99.90;;;;;;4993308;28;20418;-75
2022/06/22 13:26:27;;;;;;;10.17;8.07;;;23.20;99.90;;;;;;4993205;28;20820;-75
2022/06/22 13:29:13;;;;;;;11.47;8.63;;;23.20;99.90;;;;;;4991931;28;20800;-75
2022/06/22 13:31:42;;;;;;;17.80;8.00;;;23.20;99.90;;;;;;4992725;28;20466;-75
2022/06/22 13:34:24;;;;;;;15.63;9.00;;;23.10;99.90;;;;;;4992791;28;20458;-76
2022/06/22 13:37:23;;;;;;;16.33;8.37;;;23.10;99.90;;;;;;4993070;28;20406;-75
2022/06/22 13:40:05;;;;;;;13.77;8.57;;;23.00;99.90;;;;;;4992158;28;20509;-75
2022/06/22 13:42:33;;;;;;;12.87;9.47;;;23.00;99.90;;;;;;4992991;28;20429;-76
2022/06/22 13:45:13;;;;;;;14.93;11.47;;;23.00;99.90;;;;;;4992984;28;20407;-76
2022/06/22 13:48:08;;;;;;;17.27;12.13;;;23.00;99.90;;;;;;4992853;28;20939;-75
2022/06/22 13:51:18;;;;;;;17.60;13.23;;;23.10;99.90;;;;;;4976682;28;20434;-75
2022/06/22 13:54:13;;;;;;;20.07;12.17;;;23.20;99.90;;;;;;4991480;28;20462;-75
2022/06/22 13:56:51;;;;;;;14.83;11.07;;;23.20;99.90;;;;;;4991652;28;21009;-75
2022/06/22 13:59:58;;;;;;;11.73;10.53;;;23.30;99.90;;;;;;4992634;28;20893;-75
2022/06/22 14:03:06;;;;;;;11.03;9.93;;;23.40;99.90;;;;;;4992255;28;20803;-75
2022/06/22 14:05:38;;;;;;;17.50;10.73;;;23.60;99.90;;;;;;4991109;28;20517;-76
2022/06/22 14:08:21;;;;;;;12.50;10.50;;;23.70;99.90;;;;;;4992633;28;20414;-76
2022/06/22 14:10:53;;;;;;;16.63;11.60;;;23.60;99.90;;;;;;4992337;28;20421;-75
2022/06/22 14:13:56;;;;;;;17.10;10.77;;;23.70;99.90;;;;;;4992196;28;20513;-76
2022/06/22 14:16:44;;;;;;;11.67;9.03;;;23.70;99.90;;;;;;4992627;28;20417;-76
2022/06/22 14:19:21;;;;;;;15.93;9.97;;;23.80;99.90;;;;;;4992420;28;20426;-75
2022/06/22 14:21:54;;;;;;;12.57;9.63;;;23.80;99.90;;;;;;4992381;28;20458;-75
2022/06/22 14:24:23;;;;;;;16.30;11.07;;;23.80;99.90;;;;;;4992425;28;20421;-76
2022/06/22 14:27:17;;;;;;;13.80;8.80;;;23.80;99.90;;;;;;4997070;28;20402;-76
2022/06/22 14:30:04;;;;;;;11.87;8.80;;;24.10;99.90;;;;;;4996424;28;20490;-75
2022/06/22 14:32:51;;;;;;;16.20;6.67;;;24.30;99.90;;;;;;4996076;28;20486;-75
2022/06/22 14:35:42;;;;;;;13.07;6.97;;;24.40;99.90;;;;;;4996749;28;20461;-76
2022/06/22 14:38:19;;;;;;;21.17;6.83;;;24.50;99.90;;;;;;4996296;28;20433;-76
2022/06/22 14:41:03;;;;;;;15.87;6.03;;;24.50;99.90;;;;;;4996231;28;20402;-75
2022/06/22 14:43:41;;;;;;;9.60;5.83;;;24.40;99.90;;;;;;4996609;28;20501;-75
2022/06/22 14:46:18;;;;;;;13.70;6.00;;;24.40;99.90;;;;;;4996367;28;20943;-76
2022/06/22 14:49:01;;;;;;;19.60;5.83;;;24.40;99.90;;;;;;4994873;28;20818;-76
2022/06/22 14:51:52;;;;;;;13.70;5.40;;;24.40;99.90;;;;;;4995721;28;20841;-75
2022/06/22 14:54:28;;;;;;;13.30;6.20;;;24.40;99.90;;;;;;4995842;28;20513;-75
2022/06/22 14:57:19;;;;;;;16.83;5.00;;;24.40;99.90;;;;;;4996070;28;20457;-76
2022/06/22 15:00:09;;;;;;;14.23;4.63;;;24.40;99.90;;;;;;4996047;28;20444;-75
2022/06/22 15:02:47;;;;;;;20.10;5.40;;;24.30;99.90;;;;;;4995557;28;21080;-76
2022/06/22 15:05:56;;;;;;;9.23;4.60;;;24.30;99.90;;;;;;4996134;28;20417;-75
2022/06/22 15:08:27;;;;;;;13.83;5.20;;;24.20;99.90;;;;;;4989928;28;20457;-76
2022/06/22 15:10:59;;;;;;;12.03;4.43;;;24.20;99.90;;;;;;4995697;28;20481;-75
2022/06/22 15:13:27;;;;;;;14.70;4.93;;;24.20;99.90;;;;;;4995798;28;20986;-75
2022/06/22 15:16:02;;;;;;;10.53;4.90;;;24.10;99.90;;;;;;4995940;28;20421;-75
2022/06/22 15:18:46;;;;;;;12.00;5.57;;;24.00;99.90;;;;;;4978724;28;20471;-75
2022/06/22 15:21:35;;;;;;;11.60;5.77;;;24.00;99.90;;;;;;4995559;28;20430;-75
2022/06/22 15:24:21;;;;;;;15.53;5.30;;;23.90;99.90;;;;;;4995446;28;20449;-75
2022/06/22 15:26:50;;;;;;;14.00;5.47;;;23.90;99.90;;;;;;4994416;28;20419;-75
2022/06/22 15:29:37;;;;;;;16.53;5.20;;;23.80;99.90;;;;;;4995341;28;20423;-75